createdAt,value
2022-12-03T00:00:12.494Z,-0.08
2022-12-03T00:03:00.941Z,-0.08
2022-12-03T00:05:28.709Z,-0.08
2022-12-03T00:07:56.977Z,-0.08
2022-12-03T00:10:24.984Z,-0.08
2022-12-03T00:12:53.125Z,-0.07
2022-12-03T00:15:21.363Z,-0.09
2022-12-03T00:17:49.308Z,-0.11
2022-12-03T00:20:21.427Z,-0.12
2022-12-03T00:22:49.544Z,-0.09
2022-12-03T00:25:17.923Z,-0.07
2022-12-03T00:27:45.719Z,-0.06
2022-12-03T00:30:14.532Z,-0.05
2022-12-03T00:32:42.726Z,-0.04
2022-12-03T00:35:10.539Z,-0.00
2022-12-03T00:37:38.516Z,0.02
2022-12-03T00:40:07.166Z,0.04
2022-12-03T00:42:34.897Z,0.05
2022-12-03T00:45:03.702Z,0.05
2022-12-03T00:47:31.917Z,0.03
2022-12-03T00:49:59.584Z,0.00
2022-12-03T00:52:28.583Z,-0.01
2022-12-03T00:54:56.550Z,-0.03
2022-12-03T00:57:24.394Z,-0.04
2022-12-03T00:59:52.430Z,-0.03
2022-12-03T01:02:21.638Z,-0.05
2022-12-03T01:04:51.566Z,-0.06
2022-12-03T01:07:21.823Z,-0.07
2022-12-03T01:09:51.742Z,-0.07
2022-12-03T01:12:19.999Z,-0.08
2022-12-03T01:14:47.949Z,-0.11
2022-12-03T01:17:16.064Z,-0.09
2022-12-03T01:19:48.228Z,-0.06
2022-12-03T01:22:20.426Z,-0.05
2022-12-03T01:24:51.120Z,-0.06
2022-12-03T01:27:20.275Z,-0.03
2022-12-03T01:29:47.998Z,-0.01
2022-12-03T01:32:21.980Z,-0.01
2022-12-03T01:34:52.307Z,-0.01
2022-12-03T01:37:23.447Z,-0.00
2022-12-03T01:39:51.400Z,-0.01
2022-12-03T01:42:23.660Z,-0.03
2022-12-03T01:44:54.296Z,-0.02
2022-12-03T01:47:28.673Z,-0.01
2022-12-03T01:50:01.898Z,-0.02
2022-12-03T01:52:33.505Z,-0.02
2022-12-03T01:55:03.987Z,-0.02
2022-12-03T01:57:45.087Z,-0.02
2022-12-03T02:00:18.688Z,-0.03
2022-12-03T02:02:50.948Z,-0.04
2022-12-03T02:05:22.479Z,-0.06
2022-12-03T02:07:50.646Z,-0.08
2022-12-03T02:10:26.683Z,-0.10
2022-12-03T02:13:00.859Z,-0.08
2022-12-03T02:15:29.056Z,-0.04
2022-12-03T02:17:57.745Z,-0.00
2022-12-03T02:20:25.699Z,0.02
2022-12-03T02:23:29.962Z,0.04
2022-12-03T02:25:57.861Z,0.04
2022-12-03T02:28:25.614Z,-0.01
2022-12-03T02:30:53.524Z,-0.02
2022-12-03T02:33:21.696Z,-0.01
2022-12-03T02:35:49.671Z,0.00
2022-12-03T02:38:21.610Z,0.02
2022-12-03T02:40:56.973Z,0.03
2022-12-03T02:43:25.611Z,0.04
2022-12-03T02:45:56.505Z,0.05
2022-12-03T02:48:31.391Z,0.06
2022-12-03T02:51:02.546Z,0.06
2022-12-03T02:53:35.947Z,0.06
2022-12-03T02:56:05.039Z,0.07
2022-12-03T02:58:33.857Z,0.06
2022-12-03T03:01:03.510Z,0.04
2022-12-03T03:03:32.601Z,0.03
2022-12-03T03:06:02.109Z,0.01
2022-12-03T03:08:30.401Z,0.04
2022-12-03T03:11:01.489Z,0.05
2022-12-03T03:13:31.307Z,0.06
2022-12-03T03:15:59.832Z,0.06
2022-12-03T03:18:27.763Z,0.04
2022-12-03T03:20:55.765Z,-0.00
2022-12-03T03:23:24.551Z,-0.03
2022-12-03T03:26:05.733Z,-0.05
2022-12-03T03:28:37.318Z,-0.07
2022-12-03T03:31:09.259Z,-0.07
2022-12-03T03:33:41.253Z,-0.05
2022-12-03T03:36:09.880Z,-0.01
2022-12-03T03:38:38.241Z,0.01
2022-12-03T03:41:09.288Z,0.04
2022-12-03T03:43:39.254Z,0.03
2022-12-03T03:46:07.920Z,0.03
2022-12-03T03:48:36.473Z,0.05
2022-12-03T03:51:09.120Z,0.06
2022-12-03T03:53:40.364Z,0.06
2022-12-03T03:56:09.786Z,0.05
2022-12-03T03:58:37.849Z,0.06
2022-12-03T04:01:06.048Z,0.07
2022-12-03T04:03:34.733Z,0.08
2022-12-03T04:06:02.589Z,0.10
2022-12-03T04:08:30.698Z,0.10
2022-12-03T04:11:17.853Z,0.09
2022-12-03T04:13:45.877Z,0.07
2022-12-03T04:16:13.598Z,0.06
2022-12-03T04:18:44.187Z,0.07
2022-12-03T04:21:34.073Z,0.07
2022-12-03T04:24:02.655Z,0.06
2022-12-03T04:26:49.142Z,0.07
2022-12-03T04:29:19.713Z,0.06
2022-12-03T04:32:06.808Z,0.07
2022-12-03T04:34:53.810Z,0.07
2022-12-03T04:37:22.328Z,0.08
2022-12-03T04:39:50.079Z,0.09
2022-12-03T04:42:18.065Z,0.07
2022-12-03T04:44:46.041Z,0.07
2022-12-03T04:47:16.202Z,0.07
2022-12-03T04:49:46.643Z,0.09
2022-12-03T04:52:17.233Z,0.11
2022-12-03T04:54:45.794Z,0.12
2022-12-03T04:57:13.892Z,0.16
2022-12-03T04:59:41.887Z,0.18
2022-12-03T05:02:09.886Z,0.18
2022-12-03T05:04:37.980Z,0.19
2022-12-03T05:07:05.985Z,0.21
2022-12-03T05:09:33.732Z,0.22
2022-12-03T05:12:01.651Z,0.20
2022-12-03T05:14:29.601Z,0.20
2022-12-03T05:16:57.547Z,0.20
2022-12-03T05:19:45.934Z,0.21
2022-12-03T05:22:13.959Z,0.22
2022-12-03T05:24:41.742Z,0.24
2022-12-03T05:27:09.598Z,0.24
2022-12-03T05:29:37.537Z,0.26
2022-12-03T05:32:05.486Z,0.27
2022-12-03T05:34:33.368Z,0.26
2022-12-03T05:37:01.328Z,0.26
2022-12-03T05:39:29.029Z,0.22
2022-12-03T05:42:15.311Z,0.19
2022-12-03T05:44:43.252Z,0.19
2022-12-03T05:47:10.990Z,0.18
2022-12-03T05:49:39.513Z,0.17
2022-12-03T05:52:07.475Z,0.21
2022-12-03T05:54:35.162Z,0.26
2022-12-03T05:57:02.985Z,0.30
2022-12-03T05:59:31.071Z,0.31
2022-12-03T06:01:58.786Z,0.28
2022-12-03T06:04:26.767Z,0.27
2022-12-03T06:06:54.806Z,0.26
2022-12-03T06:09:22.487Z,0.25
2022-12-03T06:11:54.201Z,0.24
2022-12-03T06:14:22.247Z,0.24
2022-12-03T06:16:49.986Z,0.25
2022-12-03T06:19:18.379Z,0.25
2022-12-03T06:21:46.390Z,0.25
2022-12-03T06:24:14.061Z,0.25
2022-12-03T06:26:41.934Z,0.25
2022-12-03T06:29:10.109Z,0.24
2022-12-03T06:31:38.159Z,0.26
2022-12-03T06:34:05.977Z,0.29
2022-12-03T06:36:33.907Z,0.29
2022-12-03T06:39:01.612Z,0.31
2022-12-03T06:41:29.595Z,0.34
2022-12-03T06:43:57.423Z,0.40
2022-12-03T06:46:25.436Z,0.44
2022-12-03T06:48:53.385Z,0.45
2022-12-03T06:51:21.485Z,0.46
2022-12-03T06:53:49.158Z,0.48
2022-12-03T06:56:21.544Z,0.50
2022-12-03T06:58:50.436Z,0.48
2022-12-03T07:01:18.547Z,0.48
2022-12-03T07:03:46.491Z,0.49
2022-12-03T07:06:14.710Z,0.49
2022-12-03T07:08:42.599Z,0.50
2022-12-03T07:11:30.328Z,0.51
2022-12-03T07:14:05.653Z,0.52
2022-12-03T07:16:35.688Z,0.54
2022-12-03T07:19:05.068Z,0.53
2022-12-03T07:21:33.201Z,0.54
2022-12-03T07:24:01.655Z,0.56
2022-12-03T07:26:33.446Z,0.55
2022-12-03T07:29:01.183Z,0.58
2022-12-03T07:31:28.947Z,0.57
2022-12-03T07:33:57.113Z,0.58
2022-12-03T07:36:24.860Z,0.60
2022-12-03T07:38:52.788Z,0.63
2022-12-03T07:41:21.046Z,0.62
2022-12-03T07:43:48.797Z,0.63
2022-12-03T07:46:16.573Z,0.63
2022-12-03T07:48:44.824Z,0.65
2022-12-03T07:51:15.148Z,0.67
2022-12-03T07:53:43.451Z,0.67
2022-12-03T07:56:11.544Z,0.71
2022-12-03T07:58:39.235Z,0.76
2022-12-03T08:01:07.001Z,0.83
2022-12-03T08:03:35.507Z,0.84
2022-12-03T08:06:03.483Z,0.86
2022-12-03T08:08:31.219Z,0.87
2022-12-03T08:11:00.748Z,0.89
2022-12-03T08:13:28.605Z,0.89
2022-12-03T08:16:00.749Z,0.92
2022-12-03T08:18:29.042Z,0.96
2022-12-03T08:20:56.755Z,0.99
2022-12-03T08:23:25.908Z,1.03
2022-12-03T08:25:54.162Z,1.07
2022-12-03T08:28:25.745Z,1.12
2022-12-03T08:31:20.832Z,1.14
2022-12-03T08:33:51.611Z,1.16
2022-12-03T08:36:30.951Z,1.18
2022-12-03T08:39:28.602Z,1.16
2022-12-03T08:42:28.239Z,1.20
2022-12-03T08:44:56.822Z,1.21
2022-12-03T08:47:25.401Z,1.27
2022-12-03T08:50:03.396Z,1.32
2022-12-03T08:52:33.333Z,1.37
2022-12-03T08:55:27.189Z,1.40
2022-12-03T08:57:55.209Z,1.43
2022-12-03T09:00:24.494Z,1.44
2022-12-03T09:03:00.271Z,1.48
2022-12-03T09:05:32.400Z,1.50
2022-12-03T09:08:00.504Z,1.54
2022-12-03T09:10:28.488Z,1.59
2022-12-03T09:12:56.757Z,1.64
2022-12-03T09:15:24.591Z,1.67
2022-12-03T09:17:52.540Z,1.72
2022-12-03T09:20:20.515Z,1.78
2022-12-03T09:22:48.469Z,1.83
2022-12-03T09:25:17.251Z,1.89
2022-12-03T09:27:45.922Z,1.93
2022-12-03T09:30:14.070Z,1.98
2022-12-03T09:32:41.920Z,2.02
2022-12-03T09:35:10.473Z,2.07
2022-12-03T09:37:38.395Z,2.11
2022-12-03T09:40:07.647Z,2.13
2022-12-03T09:42:35.880Z,2.18
2022-12-03T09:45:11.142Z,2.22
2022-12-03T09:47:41.752Z,2.25
2022-12-03T09:50:15.250Z,2.25
2022-12-03T09:52:45.116Z,2.27
2022-12-03T09:55:21.041Z,2.27
2022-12-03T09:57:49.200Z,2.29
2022-12-03T10:00:19.861Z,2.31
2022-12-03T10:02:51.286Z,2.36
2022-12-03T10:05:21.336Z,2.41
2022-12-03T10:07:50.969Z,2.44
2022-12-03T10:10:22.297Z,2.48
2022-12-03T10:12:52.103Z,2.50
2022-12-03T10:15:22.979Z,2.53
2022-12-03T10:17:54.588Z,2.58
2022-12-03T10:20:24.546Z,2.61
2022-12-03T10:22:52.521Z,2.66
2022-12-03T10:25:22.549Z,2.69
2022-12-03T10:27:59.313Z,2.67
2022-12-03T10:30:28.886Z,2.67
2022-12-03T10:32:59.157Z,2.65
2022-12-03T10:35:39.085Z,2.65
2022-12-03T10:38:19.366Z,2.63
2022-12-03T10:40:47.444Z,2.61
2022-12-03T10:43:18.365Z,2.58
2022-12-03T10:46:12.426Z,2.61
2022-12-03T10:48:40.565Z,2.64
2022-12-03T10:51:21.957Z,2.67
2022-12-03T10:53:50.737Z,2.70
2022-12-03T10:56:26.057Z,2.69
2022-12-03T10:58:54.944Z,2.71
2022-12-03T11:01:25.776Z,2.73
2022-12-03T11:04:00.772Z,2.77
2022-12-03T11:06:31.363Z,2.80
2022-12-03T11:09:02.684Z,2.82
2022-12-03T11:11:35.163Z,2.82
2022-12-03T11:14:04.034Z,2.81
2022-12-03T11:16:41.335Z,2.79
2022-12-03T11:19:12.564Z,2.77
2022-12-03T11:22:05.561Z,2.74
2022-12-03T11:24:35.734Z,2.74
2022-12-03T11:27:03.439Z,2.71
2022-12-03T11:29:47.069Z,2.69
2022-12-03T11:32:42.991Z,2.68
2022-12-03T11:35:16.172Z,2.67
2022-12-03T11:37:44.075Z,2.64
2022-12-03T11:40:17.991Z,2.65
2022-12-03T11:42:47.739Z,2.66
2022-12-03T11:45:30.938Z,2.66
2022-12-03T11:47:58.733Z,2.66
2022-12-03T11:50:55.716Z,2.69
2022-12-03T11:53:25.932Z,2.70
2022-12-03T11:56:08.673Z,2.69
2022-12-03T11:58:39.572Z,2.68
2022-12-03T12:01:08.714Z,2.68
2022-12-03T12:03:48.277Z,2.66
2022-12-03T12:06:21.486Z,2.65
2022-12-03T12:08:52.230Z,2.66
2022-12-03T12:11:31.446Z,2.68
2022-12-03T12:14:04.645Z,2.70
2022-12-03T12:16:46.080Z,2.73
2022-12-03T12:19:35.948Z,2.75
2022-12-03T12:22:23.160Z,2.77
2022-12-03T12:24:52.132Z,2.81
2022-12-03T12:27:32.196Z,2.81
2022-12-03T12:30:13.053Z,2.82
2022-12-03T12:32:52.785Z,2.85
2022-12-03T12:35:29.840Z,2.91
2022-12-03T12:38:24.258Z,2.92
2022-12-03T12:40:52.881Z,2.94
2022-12-03T12:43:26.914Z,2.95
2022-12-03T12:46:00.813Z,2.96
2022-12-03T12:48:39.099Z,2.95
2022-12-03T12:51:16.951Z,2.97
2022-12-03T12:53:45.037Z,3.01
2022-12-03T12:56:23.799Z,3.04
2022-12-03T12:58:52.999Z,3.04
2022-12-03T13:01:29.995Z,3.03
2022-12-03T13:03:59.488Z,3.02
2022-12-03T13:06:30.854Z,3.02
2022-12-03T13:09:01.121Z,3.02
2022-12-03T13:11:45.914Z,3.03
2022-12-03T13:14:21.215Z,3.05
2022-12-03T13:16:52.060Z,3.07
2022-12-03T13:19:24.295Z,3.07
2022-12-03T13:21:57.104Z,3.10
2022-12-03T13:24:26.996Z,3.13
2022-12-03T13:26:55.749Z,3.15
2022-12-03T13:29:25.930Z,3.15
2022-12-03T13:31:59.898Z,3.15
2022-12-03T13:34:32.708Z,3.14
2022-12-03T13:37:13.725Z,3.14
2022-12-03T13:39:46.789Z,3.13
2022-12-03T13:42:39.738Z,3.13
2022-12-03T13:45:13.932Z,3.12
2022-12-03T13:47:43.510Z,3.09
2022-12-03T13:50:34.436Z,3.04
2022-12-03T13:53:13.458Z,2.97
2022-12-03T13:55:47.820Z,2.93
2022-12-03T13:58:15.664Z,2.91
2022-12-03T14:00:43.693Z,2.89
2022-12-03T14:03:11.722Z,2.86
2022-12-03T14:05:39.530Z,2.81
2022-12-03T14:08:07.548Z,2.75
2022-12-03T14:10:35.460Z,2.71
2022-12-03T14:13:03.249Z,2.71
2022-12-03T14:15:31.266Z,2.70
2022-12-03T14:17:59.124Z,2.70
2022-12-03T14:20:26.930Z,2.69
2022-12-03T14:22:59.321Z,2.68
2022-12-03T14:25:27.855Z,2.65
2022-12-03T14:27:55.603Z,2.61
2022-12-03T14:30:23.629Z,2.60
2022-12-03T14:32:51.708Z,2.57
2022-12-03T14:35:19.829Z,2.56
2022-12-03T14:37:47.715Z,2.55
2022-12-03T14:40:21.240Z,2.52
2022-12-03T14:42:49.771Z,2.52
2022-12-03T14:45:17.923Z,2.51
2022-12-03T14:47:45.636Z,2.48
2022-12-03T14:50:14.492Z,2.46
2022-12-03T14:52:43.469Z,2.45
2022-12-03T14:55:11.189Z,2.44
2022-12-03T14:57:39.147Z,2.43
2022-12-03T15:00:07.710Z,2.42
2022-12-03T15:02:35.768Z,2.41
2022-12-03T15:05:04.059Z,2.43
2022-12-03T15:07:32.335Z,2.43
2022-12-03T15:10:00.161Z,2.42
2022-12-03T15:12:28.035Z,2.42
2022-12-03T15:14:56.177Z,2.40
2022-12-03T15:17:31.288Z,2.40
2022-12-03T15:20:00.506Z,2.41
2022-12-03T15:22:28.212Z,2.43
2022-12-03T15:24:55.861Z,2.45
2022-12-03T15:27:24.080Z,2.45
2022-12-03T15:29:52.033Z,2.46
2022-12-03T15:32:19.935Z,2.45
2022-12-03T15:34:48.208Z,2.44
2022-12-03T15:37:15.936Z,2.44
2022-12-03T15:39:52.787Z,2.43
2022-12-03T15:42:21.236Z,2.41
2022-12-03T15:44:49.487Z,2.41
2022-12-03T15:47:17.227Z,2.39
2022-12-03T15:49:45.618Z,2.38
2022-12-03T15:52:13.312Z,2.37
2022-12-03T15:54:41.008Z,2.38
2022-12-03T15:57:09.067Z,2.36
2022-12-03T15:59:36.838Z,2.36
2022-12-03T16:02:04.644Z,2.38
2022-12-03T16:04:33.303Z,2.39
2022-12-03T16:07:01.069Z,2.40
2022-12-03T16:09:28.775Z,2.38
2022-12-03T16:11:56.881Z,2.33
2022-12-03T16:14:24.598Z,2.30
2022-12-03T16:16:52.554Z,2.31
2022-12-03T16:19:21.168Z,2.31
2022-12-03T16:21:48.885Z,2.31
2022-12-03T16:24:16.572Z,2.30
2022-12-03T16:26:44.714Z,2.31
2022-12-03T16:29:13.684Z,2.31
2022-12-03T16:31:41.458Z,2.31
2022-12-03T16:34:09.794Z,2.28
2022-12-03T16:36:37.565Z,2.27
2022-12-03T16:39:05.678Z,2.28
2022-12-03T16:41:33.945Z,2.28
2022-12-03T16:44:03.039Z,2.30
2022-12-03T16:46:30.823Z,2.29
2022-12-03T16:48:59.405Z,2.27
2022-12-03T16:51:30.348Z,2.28
2022-12-03T16:53:58.057Z,2.29
2022-12-03T16:56:26.479Z,2.30
2022-12-03T16:58:54.461Z,2.30
2022-12-03T17:01:23.501Z,2.29
2022-12-03T17:03:52.058Z,2.29
2022-12-03T17:06:19.745Z,2.30
2022-12-03T17:08:49.681Z,2.30
2022-12-03T17:11:18.380Z,2.29
2022-12-03T17:13:46.105Z,2.29
2022-12-03T17:16:14.166Z,2.29
2022-12-03T17:18:42.851Z,2.30
2022-12-03T17:21:10.978Z,2.30
2022-12-03T17:23:38.684Z,2.32
2022-12-03T17:26:07.623Z,2.33
2022-12-03T17:28:35.957Z,2.35
2022-12-03T17:31:04.039Z,2.36
2022-12-03T17:33:32.525Z,2.37
2022-12-03T17:36:01.192Z,2.36
2022-12-03T17:38:31.617Z,2.35
2022-12-03T17:41:03.788Z,2.35
2022-12-03T17:43:31.493Z,2.35
2022-12-03T17:46:00.137Z,2.35
2022-12-03T17:48:29.515Z,2.36
2022-12-03T17:50:58.130Z,2.37
2022-12-03T17:53:26.052Z,2.37
2022-12-03T17:55:54.488Z,2.39
2022-12-03T17:58:22.192Z,2.40
2022-12-03T18:00:49.989Z,2.40
2022-12-03T18:03:18.117Z,2.40
2022-12-03T18:05:45.780Z,2.39
2022-12-03T18:08:13.615Z,2.40
2022-12-03T18:10:41.829Z,2.43
2022-12-03T18:13:09.503Z,2.45
2022-12-03T18:15:37.240Z,2.45
2022-12-03T18:18:05.647Z,2.47
2022-12-03T18:20:33.399Z,2.49
2022-12-03T18:23:01.306Z,2.50
2022-12-03T18:25:29.945Z,2.52
2022-12-03T18:27:57.978Z,2.53
2022-12-03T18:30:25.732Z,2.53
2022-12-03T18:32:54.221Z,2.54
2022-12-03T18:35:22.010Z,2.55
2022-12-03T18:37:51.237Z,2.55
2022-12-03T18:40:22.051Z,2.55
2022-12-03T18:42:49.874Z,2.54
2022-12-03T18:45:17.688Z,2.55
2022-12-03T18:47:46.017Z,2.58
2022-12-03T18:50:14.761Z,2.58
2022-12-03T18:52:42.552Z,2.58
2022-12-03T18:55:18.713Z,2.61
2022-12-03T18:57:46.429Z,2.63
2022-12-03T19:00:16.291Z,2.63
2022-12-03T19:05:36.269Z,2.65
2022-12-03T19:08:04.579Z,2.69
2022-12-03T19:10:32.368Z,2.71
2022-12-03T19:13:00.375Z,2.73
2022-12-03T19:15:28.224Z,2.72
2022-12-03T19:17:56.026Z,2.72
2022-12-03T19:20:24.447Z,2.72
2022-12-03T19:22:52.284Z,2.72
2022-12-03T19:25:20.223Z,2.72
2022-12-03T19:27:50.130Z,2.73
2022-12-03T19:30:18.118Z,2.77
2022-12-03T19:32:45.960Z,2.79
2022-12-03T19:35:14.183Z,2.83
2022-12-03T19:37:42.200Z,2.84
2022-12-03T19:40:10.465Z,2.84
2022-12-03T19:42:39.183Z,2.84
2022-12-03T19:45:07.813Z,2.85
2022-12-03T19:47:36.866Z,2.85
2022-12-03T19:50:05.891Z,2.85
2022-12-03T19:52:36.417Z,2.89
2022-12-03T19:55:05.138Z,2.92
2022-12-03T19:57:33.259Z,2.94
2022-12-03T20:00:01.423Z,2.94
2022-12-03T20:02:29.474Z,2.93
2022-12-03T20:04:57.549Z,2.91
2022-12-03T20:07:25.729Z,2.90
2022-12-03T20:09:53.929Z,2.90
2022-12-03T20:12:22.064Z,2.89
2022-12-03T20:14:50.304Z,2.89
2022-12-03T20:17:18.011Z,2.90
2022-12-03T20:19:45.822Z,2.90
2022-12-03T20:22:13.722Z,2.89
2022-12-03T20:24:41.452Z,2.88
2022-12-03T20:27:09.230Z,2.89
2022-12-03T20:29:37.306Z,2.90
2022-12-03T20:32:07.009Z,2.91
2022-12-03T20:34:36.083Z,2.92
2022-12-03T20:37:04.218Z,2.95
2022-12-03T20:39:31.926Z,2.96
2022-12-03T20:41:59.672Z,2.98
2022-12-03T20:44:27.733Z,2.97
2022-12-03T20:46:55.552Z,2.95
2022-12-03T20:49:23.901Z,2.94
2022-12-03T20:51:51.946Z,2.94
2022-12-03T20:54:19.770Z,2.93
2022-12-03T20:56:48.054Z,2.92
2022-12-03T20:59:17.718Z,2.93
2022-12-03T21:01:45.642Z,2.93
2022-12-03T21:04:13.837Z,2.92
2022-12-03T21:06:42.503Z,2.90
2022-12-03T21:09:11.459Z,2.90
2022-12-03T21:11:42.290Z,2.88
2022-12-03T21:14:11.384Z,2.87
2022-12-03T21:19:31.612Z,2.88
2022-12-03T21:21:59.473Z,2.90
2022-12-03T21:24:27.200Z,2.92
2022-12-03T21:26:55.884Z,2.93
2022-12-03T21:29:23.959Z,2.93
2022-12-03T21:31:51.667Z,2.93
2022-12-03T21:34:19.617Z,2.90
2022-12-03T21:36:47.388Z,2.87
2022-12-03T21:39:15.094Z,2.87
2022-12-03T21:42:18.836Z,2.85
2022-12-03T21:44:31.049Z,2.85
2022-12-03T21:47:12.280Z,2.88
2022-12-03T21:49:42.016Z,2.91
2022-12-03T21:52:10.601Z,2.91
2022-12-03T21:54:38.368Z,2.91
2022-12-03T21:57:06.054Z,2.90
2022-12-03T21:59:34.225Z,2.88
2022-12-03T22:02:02.187Z,2.85
2022-12-03T22:04:29.944Z,2.84
2022-12-03T22:06:58.263Z,2.83
2022-12-03T22:09:27.317Z,2.84
2022-12-03T22:11:56.987Z,2.87
2022-12-03T22:14:25.420Z,2.86
2022-12-03T22:16:53.170Z,2.83
2022-12-03T22:19:25.445Z,2.81
2022-12-03T22:21:53.423Z,2.80
2022-12-03T22:24:21.459Z,2.79
2022-12-03T22:26:49.259Z,2.78
2022-12-03T22:29:17.560Z,2.76
2022-12-03T22:31:45.230Z,2.75
2022-12-03T22:34:13.011Z,2.72
2022-12-03T22:36:41.207Z,2.71
2022-12-03T22:39:08.959Z,2.70
2022-12-03T22:41:36.705Z,2.71
2022-12-03T22:44:05.218Z,2.74
2022-12-03T22:46:32.977Z,2.76
2022-12-03T22:49:06.812Z,2.78
2022-12-03T22:51:35.756Z,2.75
2022-12-03T22:54:04.052Z,2.74
2022-12-03T22:56:32.123Z,2.73
2022-12-03T22:59:00.224Z,2.74
2022-12-03T23:01:31.705Z,2.74
2022-12-03T23:04:00.586Z,2.74
2022-12-03T23:06:30.352Z,2.74
2022-12-03T23:08:58.557Z,2.74
2022-12-03T23:11:27.330Z,2.72
2022-12-03T23:13:55.498Z,2.74
2022-12-03T23:16:29.546Z,2.73
2022-12-03T23:18:59.406Z,2.72
2022-12-03T23:21:30.429Z,2.72
2022-12-03T23:24:00.509Z,2.69
2022-12-03T23:26:29.476Z,2.69
2022-12-03T23:28:57.305Z,2.72
2022-12-03T23:31:28.896Z,2.73
2022-12-03T23:33:58.823Z,2.71
2022-12-03T23:36:28.848Z,2.70
2022-12-03T23:38:56.824Z,2.71
2022-12-03T23:41:24.939Z,2.71
2022-12-03T23:43:53.422Z,2.69
2022-12-03T23:46:24.342Z,2.68
2022-12-03T23:48:52.535Z,2.68
2022-12-03T23:51:24.030Z,2.67
2022-12-03T23:53:53.370Z,2.66
2022-12-03T23:56:27.284Z,2.66
2022-12-03T23:58:56.150Z,2.64
